Time;durP1;ratioP1;P1;durP2;ratioP2;P2;SDS_P1;SDS_P2;PMS_P1;PMS_P2;Temp;Humidity;BMP_temperature;BMP_pressure;BME280_temperature;BME280_humidity;BME280_pressure;Samples;Min_cycle;Max_cycle;Signal;HPM_P1;HPM_P2
2023/11/11 00:01:16;;;;;;;2.03;1.08;;;;;;;7.41;100.00;99433.69;6253445;28;20053;-70
2023/11/11 00:04:18;;;;;;;5.57;1.20;;;;;;;7.40;100.00;99447.69;6252994;28;20115;-71
2023/11/11 00:07:19;;;;;;;1.20;1.10;;;;;;;7.38;100.00;99450.41;6252407;28;20362;-72
2023/11/11 00:10:21;;;;;;;4.43;1.30;;;;;;;7.39;100.00;99439.00;6244586;28;20053;-70
2023/11/11 00:13:24;;;;;;;2.08;1.13;;;;;;;7.37;100.00;99440.88;6252624;28;20053;-69
2023/11/11 00:16:25;;;;;;;3.55;1.00;;;;;;;7.40;100.00;99442.44;6252696;28;20045;-70
2023/11/11 00:19:29;;;;;;;1.58;1.20;;;;;;;7.40;100.00;99445.91;6252634;28;20438;-72
2023/11/11 00:22:30;;;;;;;1.33;0.93;;;;;;;7.40;100.00;99434.63;6252370;28;20055;-70
2023/11/11 00:25:31;;;;;;;3.13;1.42;;;;;;;7.35;100.00;99430.50;6252516;28;20049;-70
2023/11/11 00:28:40;;;;;;;3.47;1.17;;;;;;;7.37;100.00;99433.03;6252703;28;20050;-70
2023/11/11 00:31:45;;;;;;;3.03;1.50;;;;;;;7.37;100.00;99433.03;6252299;28;20061;-71
2023/11/11 00:34:47;;;;;;;2.65;1.35;;;;;;;7.34;100.00;99433.22;6252281;28;20100;-71
2023/11/11 00:37:48;;;;;;;2.38;1.33;;;;;;;7.34;100.00;99443.69;6252158;28;20346;-71
2023/11/11 00:40:50;;;;;;;5.00;1.33;;;;;;;7.29;100.00;99440.50;6252061;28;20052;-71
2023/11/11 00:43:53;;;;;;;1.95;1.17;;;;;;;7.32;100.00;99445.56;6250973;28;20052;-71
2023/11/11 00:46:54;;;;;;;1.17;0.93;;;;;;;7.32;100.00;99448.16;6251989;28;20041;-72
2023/11/11 00:49:56;;;;;;;3.60;1.20;;;;;;;7.32;100.00;99453.41;6251763;28;20100;-70
2023/11/11 00:52:59;;;;;;;1.27;1.00;;;;;;;7.36;100.00;99452.28;6252114;28;20140;-71
2023/11/11 00:56:00;;;;;;;2.80;1.50;;;;;;;7.35;100.00;99446.19;6252011;28;20045;-71
2023/11/11 00:59:05;;;;;;;3.83;1.75;;;;;;;7.34;100.00;99451.50;6251759;28;20049;-70
2023/11/11 01:02:06;;;;;;;4.75;1.90;;;;;;;7.37;100.00;99451.34;6251506;28;20135;-71
2023/11/11 01:05:09;;;;;;;2.03;1.33;;;;;;;7.43;100.00;99452.72;6251620;28;20052;-71
2023/11/11 01:08:11;;;;;;;4.00;1.60;;;;;;;7.44;100.00;99449.19;6251403;28;20049;-71
2023/11/11 01:11:12;;;;;;;4.90;1.83;;;;;;;7.43;100.00;99439.66;6251372;28;20079;-70
2023/11/11 01:14:15;;;;;;;3.53;1.30;;;;;;;7.38;100.00;99458.25;6251121;28;20059;-71
2023/11/11 01:17:18;;;;;;;4.88;1.27;;;;;;;7.40;100.00;99456.34;6251033;28;20352;-70
2023/11/11 01:20:20;;;;;;;3.42;1.52;;;;;;;7.37;100.00;99452.19;6251186;28;20056;-71
2023/11/11 01:23:22;;;;;;;1.33;1.02;;;;;;;7.39;100.00;99446.84;6251086;28;20053;-71
2023/11/11 01:26:24;;;;;;;7.18;1.55;;;;;;;7.36;100.00;99441.81;6251112;28;20132;-72
2023/11/11 01:29:27;;;;;;;3.08;1.45;;;;;;;7.33;100.00;99445.44;6246473;28;20053;-72
2023/11/11 01:32:28;;;;;;;6.43;1.40;;;;;;;7.35;100.00;99440.97;6242287;28;20354;-71
2023/11/11 01:35:30;;;;;;;2.05;1.60;;;;;;;7.33;100.00;99439.38;6251181;28;20056;-71
2023/11/11 01:38:31;;;;;;;3.67;1.25;;;;;;;7.33;100.00;99442.00;6242221;28;20064;-72
2023/11/11 01:41:33;;;;;;;2.85;1.70;;;;;;;7.31;100.00;99438.63;6250612;28;20446;-72
2023/11/11 01:44:35;;;;;;;2.67;1.58;;;;;;;7.33;100.00;99439.38;6250594;28;20125;-72
2023/11/11 01:47:38;;;;;;;2.35;1.20;;;;;;;7.32;100.00;99440.31;6242603;28;20046;-72
2023/11/11 01:50:42;;;;;;;3.97;1.77;;;;;;;7.32;100.00;99435.94;6250823;28;20049;-71
2023/11/11 01:53:43;;;;;;;5.85;1.20;;;;;;;7.33;100.00;99436.78;6250107;28;20053;-71
2023/11/11 01:56:45;;;;;;;4.45;1.73;;;;;;;7.31;100.00;99446.47;6250783;28;20132;-72
2023/11/11 01:59:48;;;;;;;4.10;1.67;;;;;;;7.29;100.00;99433.50;6250577;28;20053;-71
2023/11/11 02:02:50;;;;;;;5.45;1.52;;;;;;;7.31;100.00;99443.84;6250415;28;20053;-71
2023/11/11 02:05:54;;;;;;;3.95;1.83;;;;;;;7.32;100.00;99446.41;6250277;28;20460;-71
2023/11/11 02:08:56;;;;;;;4.63;1.85;;;;;;;7.29;100.00;99441.34;6241961;28;20454;-71
2023/11/11 02:11:57;;;;;;;5.85;1.80;;;;;;;7.32;100.00;99435.09;6250025;28;20045;-71
2023/11/11 02:15:02;;;;;;;2.17;1.10;;;;;;;7.34;100.00;99436.66;6242018;28;20459;-71
2023/11/11 02:18:06;;;;;;;2.92;1.80;;;;;;;7.31;100.00;99442.09;6250422;28;20045;-72
2023/11/11 02:21:07;;;;;;;3.80;2.00;;;;;;;7.29;100.00;99432.66;6250286;28;20067;-71
2023/11/11 02:24:11;;;;;;;2.97;1.63;;;;;;;7.33;100.00;99428.94;6250246;28;20049;-71
2023/11/11 02:27:12;;;;;;;4.00;1.50;;;;;;;7.35;100.00;99440.13;6250180;28;20056;-71
2023/11/11 02:30:14;;;;;;;5.22;1.85;;;;;;;7.31;100.00;99444.72;6250325;28;20069;-72
2023/11/11 02:33:15;;;;;;;2.28;1.33;;;;;;;7.35;100.00;99443.56;6249949;28;20060;-71
2023/11/11 02:36:17;;;;;;;3.63;1.80;;;;;;;7.42;100.00;99453.66;6250085;28;20049;-72
2023/11/11 02:39:20;;;;;;;1.83;1.60;;;;;;;7.32;100.00;99446.41;6250030;28;20442;-71
2023/11/11 02:42:21;;;;;;;1.90;1.42;;;;;;;7.31;100.00;99436.88;6249633;28;20512;-71
2023/11/11 02:45:25;;;;;;;2.50;1.60;;;;;;;7.29;100.00;99445.72;6250251;28;20088;-71
2023/11/11 02:48:26;;;;;;;2.35;1.52;;;;;;;7.28;100.00;99444.91;6250115;28;20045;-71
2023/11/11 02:51:28;;;;;;;3.97;1.50;;;;;;;7.27;100.00;99439.78;6249756;28;20054;-71
2023/11/11 02:54:30;;;;;;;3.88;1.77;;;;;;;7.31;100.00;99443.84;6250180;28;20060;-71
2023/11/11 02:57:32;;;;;;;3.90;1.45;;;;;;;7.25;100.00;99447.69;6250040;28;20437;-71
2023/11/11 03:00:33;;;;;;;5.20;1.73;;;;;;;7.24;100.00;99443.41;6249812;28;20430;-72
2023/11/11 03:03:35;;;;;;;2.28;1.17;;;;;;;7.24;100.00;99447.78;6249750;28;20056;-72
2023/11/11 03:06:40;;;;;;;3.35;1.23;;;;;;;7.28;100.00;99447.50;6251853;28;20487;-72
2023/11/11 03:09:43;;;;;;;2.15;1.48;;;;;;;7.28;100.00;99446.66;6254645;28;20060;-72
2023/11/11 03:12:45;;;;;;;2.92;1.60;;;;;;;7.29;100.00;99454.41;6254176;28;20060;-71
2023/11/11 03:15:46;;;;;;;2.45;1.60;;;;;;;7.20;100.00;99460.19;6253845;28;20441;-71
2023/11/11 03:18:48;;;;;;;3.85;1.63;;;;;;;7.21;100.00;99461.88;6254155;28;20049;-71
2023/11/11 03:21:49;;;;;;;4.90;1.58;;;;;;;7.24;100.00;99468.69;6253765;28;20049;-71
2023/11/11 03:24:52;;;;;;;16.05;2.25;;;;;;;7.23;100.00;99457.41;6253993;28;20052;-72
2023/11/11 03:27:53;;;;;;;5.43;2.38;;;;;;;7.27;100.00;99465.91;6253892;28;20132;-71
2023/11/11 03:30:54;;;;;;;7.15;2.50;;;;;;;7.28;100.00;99459.75;6249914;28;20056;-73
2023/11/11 03:33:57;;;;;;;4.35;2.20;;;;;;;7.28;100.00;99460.56;6245876;28;20353;-71
2023/11/11 03:36:58;;;;;;;3.83;2.50;;;;;;;7.22;100.00;99471.41;6244357;28;20599;-70
2023/11/11 03:40:02;;;;;;;6.22;2.95;;;;;;;7.19;100.00;99471.56;6253500;28;20046;-72
2023/11/11 03:43:03;;;;;;;4.53;2.53;;;;;;;7.20;100.00;99472.41;6253486;28;20056;-72
2023/11/11 03:46:06;;;;;;;3.42;2.25;;;;;;;7.19;100.00;99473.34;6251370;28;20058;-72
2023/11/11 03:49:07;;;;;;;4.22;3.03;;;;;;;7.16;100.00;99476.97;6247383;28;20049;-73
2023/11/11 03:52:09;;;;;;;5.18;2.42;;;;;;;7.19;100.00;99473.34;6252980;28;20457;-72
2023/11/11 03:55:12;;;;;;;4.03;2.20;;;;;;;7.20;100.00;99475.03;6253401;28;20160;-72
2023/11/11 03:58:13;;;;;;;5.22;2.92;;;;;;;7.23;100.00;99485.31;6253354;28;20050;-70
2023/11/11 04:01:15;;;;;;;4.03;2.55;;;;;;;7.15;100.00;99483.13;6253379;28;20057;-72
2023/11/11 04:04:16;;;;;;;4.20;2.83;;;;;;;7.13;100.00;99490.25;6252879;28;20060;-72
2023/11/11 04:07:18;;;;;;;7.82;3.28;;;;;;;7.10;100.00;99496.47;6252760;28;20351;-72
2023/11/11 04:10:20;;;;;;;6.65;3.17;;;;;;;7.08;100.00;99487.88;6253037;28;20057;-72
2023/11/11 04:13:22;;;;;;;5.00;2.78;;;;;;;7.03;100.00;99489.06;6252656;28;20057;-71
2023/11/11 04:16:26;;;;;;;5.35;2.67;;;;;;;7.08;100.00;99497.47;6244602;28;20195;-70
2023/11/11 04:19:27;;;;;;;5.95;3.03;;;;;;;7.04;100.00;99496.84;6252630;28;20405;-72
2023/11/11 04:22:29;;;;;;;9.35;3.17;;;;;;;7.03;100.00;99492.53;6252616;28;20056;-72
2023/11/11 04:25:31;;;;;;;5.70;2.70;;;;;;;7.05;100.00;99495.06;6252664;28;20075;-71
2023/11/11 04:28:33;;;;;;;8.45;2.83;;;;;;;7.03;100.00;99489.91;6237993;28;20072;-71
2023/11/11 04:31:34;;;;;;;7.07;2.78;;;;;;;6.99;100.00;99492.81;6252269;28;20080;-72
2023/11/11 04:34:36;;;;;;;5.07;2.90;;;;;;;7.01;100.00;99498.78;6252606;28;20053;-71
2023/11/11 04:37:37;;;;;;;6.93;3.22;;;;;;;7.04;100.00;99498.59;6252151;28;20050;-73
2023/11/11 04:40:40;;;;;;;5.10;2.70;;;;;;;7.07;100.00;99501.88;6252202;28;20461;-72
2023/11/11 04:43:42;;;;;;;6.68;3.15;;;;;;;7.06;100.00;99513.25;6252110;28;20065;-72
2023/11/11 04:46:43;;;;;;;7.10;3.30;;;;;;;7.06;100.00;99515.88;6252235;28;20049;-71
2023/11/11 04:49:44;;;;;;;9.13;3.33;;;;;;;7.13;100.00;99513.75;6252166;28;20050;-72
2023/11/11 04:52:46;;;;;;;6.65;3.80;;;;;;;7.14;100.00;99510.22;6251642;28;20049;-71
2023/11/11 04:55:49;;;;;;;8.18;3.35;;;;;;;7.18;100.00;99501.25;6252216;28;20053;-73
2023/11/11 04:58:50;;;;;;;7.07;3.50;;;;;;;7.19;100.00;99515.16;6251855;28;20057;-70
2023/11/11 05:01:53;;;;;;;6.63;3.22;;;;;;;7.15;100.00;99519.72;6251754;28;20049;-73
2023/11/11 05:04:54;;;;;;;10.40;3.47;;;;;;;7.04;100.00;99517.75;6251555;28;20625;-73
2023/11/11 05:07:55;;;;;;;6.93;3.63;;;;;;;7.07;100.00;99522.75;6251556;28;20060;-70
2023/11/11 05:10:58;;;;;;;8.27;4.47;;;;;;;7.03;100.00;99518.66;6251578;28;20056;-72
2023/11/11 05:14:00;;;;;;;9.85;3.65;;;;;;;7.01;100.00;99525.75;6251555;28;20049;-70
2023/11/11 05:17:07;;;;;;;5.38;3.10;;;;;;;6.96;100.00;99532.19;6251004;28;20396;-71
2023/11/11 05:20:10;;;;;;;7.75;3.47;;;;;;;7.00;100.00;99538.91;6251590;28;20088;-71
2023/11/11 05:23:11;;;;;;;8.85;4.15;;;;;;;6.97;100.00;99536.47;6251072;28;20050;-71
2023/11/11 05:26:14;;;;;;;9.75;4.28;;;;;;;6.98;100.00;99541.59;6251559;28;20060;-71
2023/11/11 05:29:16;;;;;;;10.95;5.28;;;;;;;6.96;100.00;99548.69;6249357;28;20041;-70
2023/11/11 05:32:17;;;;;;;20.10;5.55;;;;;;;7.01;100.00;99554.47;6240692;28;20057;-71
2023/11/11 05:35:19;;;;;;;11.52;5.20;;;;;;;7.02;100.00;99550.09;6246323;28;20453;-71
2023/11/11 05:38:20;;;;;;;11.85;5.93;;;;;;;7.02;100.00;99553.53;6242389;28;20041;-71
2023/11/11 05:41:23;;;;;;;15.80;6.43;;;;;;;7.05;100.00;99560.38;6251100;28;20049;-71
2023/11/11 05:44:25;;;;;;;13.32;6.40;;;;;;;7.05;100.00;99558.59;6250598;28;20064;-70
2023/11/11 05:47:28;;;;;;;15.60;6.65;;;;;;;7.14;100.00;99559.00;6242614;28;20053;-71
2023/11/11 05:50:29;;;;;;;14.63;6.55;;;;;;;7.14;100.00;99569.44;6250758;28;20055;-71
2023/11/11 05:53:31;;;;;;;15.23;7.43;;;;;;;7.11;100.00;99573.91;6250821;28;20053;-72
2023/11/11 05:56:34;;;;;;;18.67;7.30;;;;;;;7.15;100.00;99574.59;6250716;28;20064;-71
2023/11/11 05:59:36;;;;;;;18.85;7.20;;;;;;;7.16;100.00;99584.09;6250526;28;20465;-71
2023/11/11 06:02:37;;;;;;;19.38;7.38;;;;;;;7.20;100.00;99592.59;6242098;28;20052;-70
2023/11/11 06:05:38;;;;;;;19.88;8.73;;;;;;;7.24;100.00;99591.50;6250526;28;20056;-71
2023/11/11 06:08:40;;;;;;;18.48;7.57;;;;;;;7.23;100.00;99582.81;6250429;28;20041;-71
2023/11/11 06:11:46;;;;;;;18.77;8.40;;;;;;;7.12;100.00;99596.47;6250582;28;20045;-70
2023/11/11 06:14:49;;;;;;;18.77;7.85;;;;;;;7.13;100.00;99589.53;6250558;28;20071;-71
2023/11/11 06:17:50;;;;;;;17.75;8.18;;;;;;;7.19;100.00;99598.75;6250635;28;20191;-70
2023/11/11 06:20:52;;;;;;;15.38;7.22;;;;;;;7.18;100.00;99604.94;6250525;28;20053;-71
2023/11/11 06:23:55;;;;;;;15.98;7.53;;;;;;;6.99;100.00;99599.88;6250163;28;20434;-70
2023/11/11 06:26:58;;;;;;;19.85;8.02;;;;;;;7.05;100.00;99604.78;6250463;28;20050;-70
2023/11/11 06:29:59;;;;;;;17.73;7.10;;;;;;;7.16;100.00;99599.78;6250195;28;20056;-70
2023/11/11 06:33:01;;;;;;;16.35;7.75;;;;;;;7.15;100.00;99607.69;6250265;28;20089;-71
2023/11/11 06:36:07;;;;;;;17.77;7.88;;;;;;;7.15;100.00;99605.09;6249914;28;20378;-71
2023/11/11 06:39:08;;;;;;;18.63;7.85;;;;;;;7.19;100.00;99602.22;6242150;28;20184;-70
2023/11/11 06:42:11;;;;;;;20.10;7.97;;;;;;;7.12;100.00;99612.16;6253606;28;20056;-70
2023/11/11 06:45:14;;;;;;;19.70;7.80;;;;;;;7.03;100.00;99617.91;6254924;28;20481;-71
2023/11/11 06:48:16;;;;;;;20.02;8.73;;;;;;;6.92;100.00;99619.47;6254816;28;20068;-71
2023/11/11 06:51:18;;;;;;;14.40;7.47;;;;;;;6.91;100.00;99626.47;6254768;28;20049;-70
2023/11/11 06:54:20;;;;;;;26.77;9.82;;;;;;;6.89;100.00;99633.53;6254809;28;20050;-71
2023/11/11 06:57:23;;;;;;;16.73;7.43;;;;;;;6.98;100.00;99638.22;6254782;28;20046;-71
2023/11/11 07:00:25;;;;;;;17.13;8.20;;;;;;;6.98;100.00;99645.22;6254571;28;20054;-70
2023/11/11 07:03:28;;;;;;;20.90;8.68;;;;;;;6.89;100.00;99646.56;6254423;28;20049;-70
2023/11/11 07:06:30;;;;;;;19.83;7.88;;;;;;;6.82;100.00;99661.75;6254557;28;20068;-70
2023/11/11 07:09:31;;;;;;;14.50;6.90;;;;;;;6.78;100.00;99657.63;6254478;28;20060;-71
2023/11/11 07:12:34;;;;;;;19.63;7.55;;;;;;;6.69;100.00;99660.75;6254545;28;20049;-70
2023/11/11 07:15:36;;;;;;;16.00;6.45;;;;;;;6.70;100.00;99672.03;6253966;28;20068;-71
2023/11/11 07:18:38;;;;;;;19.42;7.03;;;;;;;6.85;100.00;99685.06;6254196;28;20045;-70
2023/11/11 07:21:40;;;;;;;18.15;5.75;;;;;;;6.79;100.00;99674.13;6254131;28;20111;-70
2023/11/11 07:24:42;;;;;;;19.45;6.93;;;;;;;6.85;100.00;99679.00;6254075;28;20064;-71
2023/11/11 07:27:45;;;;;;;9.27;4.90;;;;;;;6.70;100.00;99678.09;6254133;28;20049;-74
2023/11/11 07:30:46;;;;;;;11.13;5.07;;;;;;;6.82;100.00;99687.88;6252008;28;20050;-71
2023/11/11 07:33:47;;;;;;;12.65;5.25;;;;;;;6.70;100.00;99701.59;6249439;28;20042;-70
2023/11/11 07:36:49;;;;;;;10.52;4.40;;;;;;;6.78;100.00;99709.00;6245144;28;20052;-72
2023/11/11 07:39:50;;;;;;;11.25;4.72;;;;;;;6.76;100.00;99706.47;6253665;28;20350;-71
2023/11/11 07:42:55;;;;;;;8.38;4.45;;;;;;;6.60;100.00;99710.84;6245144;28;20049;-71
2023/11/11 07:45:56;;;;;;;15.10;4.30;;;;;;;6.69;100.00;99717.34;6253795;28;20430;-71
2023/11/11 07:48:59;;;;;;;8.38;3.58;;;;;;;6.67;100.00;99719.19;6253451;28;20081;-71
2023/11/11 07:52:02;;;;;;;7.43;3.63;;;;;;;6.66;100.00;99731.38;6253001;28;20056;-72
2023/11/11 07:55:05;;;;;;;8.50;3.10;;;;;;;6.64;100.00;99724.59;6252326;28;20046;-71
2023/11/11 07:58:07;;;;;;;6.20;2.80;;;;;;;6.62;100.00;99729.88;6246367;28;20080;-71
2023/11/11 08:01:11;;;;;;;5.40;2.58;;;;;;;6.64;100.00;99737.63;6253328;28;20049;-71
2023/11/11 08:04:13;;;;;;;6.97;3.22;;;;;;;6.46;100.00;99737.69;6252995;28;20187;-73
2023/11/11 08:07:18;;;;;;;6.90;2.97;;;;;;;6.54;100.00;99745.09;6252898;28;20053;-73
2023/11/11 08:10:20;;;;;;;4.88;2.60;;;;;;;6.53;100.00;99749.47;6253019;28;20050;-72
2023/11/11 08:13:23;;;;;;;5.93;2.50;;;;;;;6.62;100.00;99766.41;6252946;28;20136;-71
2023/11/11 08:16:25;;;;;;;7.30;2.50;;;;;;;6.72;100.00;99753.72;6240657;28;20077;-72
2023/11/11 08:19:27;;;;;;;4.40;2.58;;;;;;;6.69;100.00;99746.91;6228249;28;20267;-72
2023/11/11 08:22:28;;;;;;;7.28;2.97;;;;;;;6.64;100.00;99743.69;6239536;28;20060;-71
2023/11/11 08:25:30;;;;;;;5.72;2.55;;;;;;;6.54;100.00;99752.91;6235106;28;20045;-71
2023/11/11 08:28:32;;;;;;;5.13;2.42;;;;;;;6.55;100.00;99755.47;6240739;28;20041;-71
2023/11/11 08:31:35;;;;;;;5.07;2.60;;;;;;;6.50;100.00;99757.47;6252243;28;20369;-71
2023/11/11 08:34:37;;;;;;;3.83;2.20;;;;;;;6.54;100.00;99764.22;6252589;28;20049;-71
2023/11/11 08:37:38;;;;;;;10.18;2.58;;;;;;;6.66;100.00;99769.72;6252121;28;20049;-71
2023/11/11 08:40:39;;;;;;;3.40;2.00;;;;;;;6.69;100.00;99777.41;6239299;28;20064;-71
2023/11/11 08:43:42;;;;;;;4.50;1.85;;;;;;;6.65;100.00;99776.69;6251949;28;20053;-71
2023/11/11 08:46:44;;;;;;;2.88;1.60;;;;;;;6.72;100.00;99780.69;6252211;28;20401;-71
2023/11/11 08:49:45;;;;;;;2.92;1.15;;;;;;;6.70;100.00;99782.53;6252049;28;20056;-71
2023/11/11 08:52:47;;;;;;;2.78;1.70;;;;;;;6.63;100.00;99783.75;6244215;28;20362;-71
2023/11/11 08:55:48;;;;;;;2.65;1.40;;;;;;;6.51;100.00;99787.88;6242368;28;20348;-70
2023/11/11 08:58:51;;;;;;;3.38;1.63;;;;;;;6.63;100.00;99801.19;6247046;28;20473;-72
2023/11/11 09:01:52;;;;;;;4.97;1.50;;;;;;;6.60;100.00;99795.22;6235050;28;20095;-71
2023/11/11 09:04:55;;;;;;;8.43;1.23;;;;;;;6.55;100.00;99786.78;6241904;28;20049;-71
2023/11/11 09:07:56;;;;;;;3.90;1.50;;;;;;;6.57;100.00;99795.38;6238409;28;20054;-71
2023/11/11 09:10:59;;;;;;;5.28;1.27;;;;;;;6.48;100.00;99795.84;6216331;28;20046;-71
2023/11/11 09:14:04;;;;;;;8.05;1.40;;;;;;;6.42;100.00;99795.34;6217783;28;20053;-71
2023/11/11 09:17:05;;;;;;;2.63;1.45;;;;;;;6.51;100.00;99793.09;6245264;28;20280;-71
2023/11/11 09:20:09;;;;;;;1.90;1.40;;;;;;;6.47;100.00;99801.16;6250388;28;20076;-71
2023/11/11 09:23:11;;;;;;;7.13;1.30;;;;;;;6.52;100.00;99802.59;6242636;28;20784;-71
2023/11/11 09:26:13;;;;;;;2.20;1.65;;;;;;;6.79;100.00;99807.31;6243040;28;20053;-70
2023/11/11 09:29:15;;;;;;;1.50;1.13;;;;;;;6.79;100.00;99802.91;6247905;28;20504;-71
2023/11/11 09:32:17;;;;;;;5.07;1.98;;;;;;;6.75;100.00;99808.38;6242705;28;20049;-71
2023/11/11 09:35:18;;;;;;;2.75;1.20;;;;;;;6.71;100.00;99810.31;6247604;28;20057;-71
2023/11/11 09:38:20;;;;;;;0.95;0.60;;;;;;;6.75;100.00;99811.84;6242590;28;20042;-71
2023/11/11 09:41:21;;;;;;;1.90;0.90;;;;;;;6.72;100.00;99812.03;6242392;28;20366;-71
2023/11/11 09:44:24;;;;;;;4.63;1.20;;;;;;;6.74;100.00;99820.59;6248814;28;20057;-71
2023/11/11 09:47:27;;;;;;;1.45;0.98;;;;;;;6.80;100.00;99817.66;6248866;28;20045;-72
2023/11/11 09:50:29;;;;;;;1.55;1.05;;;;;;;6.85;100.00;99815.66;6243455;28;20053;-71
2023/11/11 09:53:32;;;;;;;7.47;0.85;;;;;;;6.76;100.00;99828.34;6242217;28;20053;-73
2023/11/11 09:56:34;;;;;;;1.75;0.98;;;;;;;6.93;100.00;99820.47;6242901;28;20045;-72
2023/11/11 09:59:37;;;;;;;8.65;1.40;;;;;;;7.03;100.00;99821.66;6242335;28;20345;-71
2023/11/11 10:02:38;;;;;;;3.38;0.93;;;;;;;7.01;100.00;99818.31;6245258;28;20442;-71
2023/11/11 10:05:40;;;;;;;1.45;0.73;;;;;;;7.17;100.00;99818.31;6244495;28;20073;-71
2023/11/11 10:08:41;;;;;;;1.13;0.65;;;;;;;7.08;100.00;99819.63;6241029;28;20053;-70
2023/11/11 10:11:43;;;;;;;3.17;1.35;;;;;;;7.21;100.00;99819.81;6240578;28;20123;-71
2023/11/11 10:14:48;;;;;;;3.95;1.00;;;;;;;7.05;100.00;99829.44;6243504;28;20481;-71
2023/11/11 10:17:49;;;;;;;3.70;1.00;;;;;;;7.23;100.00;99831.06;6256558;28;20053;-71
2023/11/11 10:20:51;;;;;;;2.30;0.65;;;;;;;7.08;100.00;99834.47;6258017;28;20056;-71
2023/11/11 10:23:56;;;;;;;2.42;0.57;;;;;;;6.98;100.00;99833.28;6257968;28;20045;-70
2023/11/11 10:26:57;;;;;;;1.88;0.77;;;;;;;7.18;100.00;99843.53;6258519;28;20053;-71
2023/11/11 10:30:00;;;;;;;2.13;0.88;;;;;;;7.24;100.00;99834.50;6258340;28;20056;-71
2023/11/11 10:33:04;;;;;;;4.63;1.40;;;;;;;7.08;100.00;99840.53;6258413;28;20053;-71
2023/11/11 10:36:06;;;;;;;8.25;1.25;;;;;;;7.15;100.00;99837.63;6258222;28;20085;-71
2023/11/11 10:39:09;;;;;;;2.45;1.42;;;;;;;7.17;100.00;99831.38;6258625;28;20081;-70
2023/11/11 10:42:12;;;;;;;1.88;1.00;;;;;;;7.17;100.00;99828.75;6257938;28;20080;-71
2023/11/11 10:45:15;;;;;;;1.42;1.00;;;;;;;7.29;100.00;99835.94;6258516;28;20045;-70
2023/11/11 10:48:17;;;;;;;1.75;1.00;;;;;;;7.26;100.00;99840.47;6258790;28;20189;-71
2023/11/11 10:51:19;;;;;;;1.55;1.00;;;;;;;7.19;100.00;99836.53;6238916;28;20049;-71
2023/11/11 10:54:24;;;;;;;2.45;1.60;;;;;;;7.15;100.00;99829.78;6242230;28;20065;-71
2023/11/11 10:57:29;;;;;;;1.98;1.05;;;;;;;6.89;100.00;99826.78;6252495;28;20050;-70
2023/11/11 11:00:34;;;;;;;1.38;1.02;;;;;;;7.08;100.00;99837.94;6249585;28;20044;-70
2023/11/11 11:03:37;;;;;;;3.97;1.17;;;;;;;7.18;100.00;99834.84;6255358;28;20056;-70
2023/11/11 11:06:43;;;;;;;1.65;1.05;;;;;;;7.07;100.00;99841.47;6249313;28;20045;-70
2023/11/11 11:09:50;;;;;;;2.22;1.50;;;;;;;7.17;100.00;99841.81;6243615;28;20046;-70
2023/11/11 11:12:57;;;;;;;0.90;0.68;;;;;;;7.08;100.00;99837.94;6249558;28;20041;-71
2023/11/11 11:16:01;;;;;;;3.53;1.38;;;;;;;7.23;100.00;99843.28;6225776;28;20127;-70
2023/11/11 11:19:07;;;;;;;1.38;0.80;;;;;;;7.24;100.00;99837.13;6228864;28;20465;-71
2023/11/11 11:22:11;;;;;;;2.63;1.00;;;;;;;7.28;100.00;99839.47;6228717;28;20050;-79
2023/11/11 11:25:37;;;;;;;1.42;1.00;;;;;;;7.19;100.00;99842.59;6239132;28;20045;-79
2023/11/11 11:28:39;;;;;;;3.53;1.05;;;;;;;7.23;100.00;99845.91;6238880;28;20041;-71
2023/11/11 11:32:07;;;;;;;4.40;0.95;;;;;;;7.27;100.00;99847.41;6238416;28;20049;-69
2023/11/11 11:35:28;;;;;;;2.00;1.02;;;;;;;7.19;100.00;99847.81;6239607;28;20046;-74
2023/11/11 11:38:31;;;;;;;3.47;0.80;;;;;;;6.96;100.00;99845.59;6245988;28;20505;-69
2023/11/11 11:41:34;;;;;;;2.63;0.75;;;;;;;7.09;100.00;99857.09;6245987;28;20079;-70
2023/11/11 11:44:36;;;;;;;0.98;0.77;;;;;;;6.79;100.00;99855.16;6238570;28;20049;-71
2023/11/11 11:47:40;;;;;;;1.45;0.60;;;;;;;6.85;100.00;99854.81;6240373;28;20046;-71
2023/11/11 11:50:41;;;;;;;0.50;0.50;;;;;;;6.67;100.00;99850.56;6250733;28;20052;-71
2023/11/11 11:53:45;;;;;;;0.65;0.47;;;;;;;6.77;100.00;99857.00;6244153;28;20050;-71
2023/11/11 11:56:46;;;;;;;0.30;0.30;;;;;;;6.70;100.00;99867.84;6226445;28;20116;-71
2023/11/11 12:00:04;;;;;;;1.40;0.85;;;;;;;6.38;100.00;99872.09;6240040;28;20331;-71
2023/11/11 12:03:07;;;;;;;0.35;0.35;;;;;;;6.33;100.00;99880.97;6229476;28;20136;-71
2023/11/11 12:06:11;;;;;;;0.45;0.45;;;;;;;6.15;100.00;99888.88;6225261;28;20093;-72
2023/11/11 12:09:17;;;;;;;0.47;0.30;;;;;;;6.28;100.00;99887.34;6244646;28;20365;-72
2023/11/11 12:12:18;;;;;;;0.30;0.20;;;;;;;6.16;100.00;99885.34;6252709;28;20345;-71
2023/11/11 12:15:20;;;;;;;0.43;0.40;;;;;;;6.18;100.00;99894.78;6253035;28;20059;-72
2023/11/11 12:18:26;;;;;;;0.40;0.30;;;;;;;5.93;100.00;99896.88;6252448;28;20160;-72
2023/11/11 12:21:28;;;;;;;0.20;0.20;;;;;;;5.88;100.00;99893.63;6252909;28;20060;-72
2023/11/11 12:24:31;;;;;;;0.17;0.17;;;;;;;5.80;100.00;99900.03;6252631;28;20053;-71
2023/11/11 12:27:32;;;;;;;0.13;0.13;;;;;;;5.67;100.00;99893.72;6252915;28;20053;-71
2023/11/11 12:30:34;;;;;;;0.00;0.00;;;;;;;5.60;100.00;99900.97;6252610;28;20176;-71
2023/11/11 12:33:37;;;;;;;0.10;0.10;;;;;;;5.54;100.00;99906.50;6236077;28;20464;-71
2023/11/11 12:36:39;;;;;;;0.38;0.20;;;;;;;5.81;100.00;99906.09;6223488;28;20041;-71
2023/11/11 12:39:49;;;;;;;0.82;0.60;;;;;;;5.90;100.00;99903.03;6228425;28;20069;-73
2023/11/11 12:42:52;;;;;;;1.13;0.30;;;;;;;5.97;100.00;99901.03;6237217;28;20049;-73
2023/11/11 12:45:55;;;;;;;1.58;0.73;;;;;;;6.05;100.00;99896.31;6237956;28;20560;-72
2023/11/11 12:49:05;;;;;;;0.85;0.60;;;;;;;6.15;100.00;99896.69;6223868;28;20049;-73
2023/11/11 12:52:14;;;;;;;0.95;0.57;;;;;;;6.12;100.00;99909.88;6224694;28;20049;-72
2023/11/11 12:55:22;;;;;;;1.50;0.65;;;;;;;6.21;100.00;99904.22;6234718;28;20053;-72
2023/11/11 12:58:25;;;;;;;0.95;0.50;;;;;;;6.23;100.00;99902.41;6240955;28;20050;-73
2023/11/11 13:01:27;;;;;;;0.82;0.40;;;;;;;6.23;100.00;99905.00;6246998;28;20119;-72
2023/11/11 13:04:31;;;;;;;0.65;0.30;;;;;;;6.15;100.00;99909.75;6251614;28;20334;-72
2023/11/11 13:07:32;;;;;;;2.80;1.25;;;;;;;6.25;100.00;99910.97;6236577;28;20049;-71
2023/11/11 13:10:35;;;;;;;3.03;0.30;;;;;;;6.29;100.00;99912.53;6236158;28;20041;-71
2023/11/11 13:13:37;;;;;;;1.20;0.57;;;;;;;6.32;100.00;99902.78;6243240;28;20051;-74
2023/11/11 13:16:38;;;;;;;1.52;0.60;;;;;;;6.38;100.00;99911.22;6236811;28;20041;-72
2023/11/11 13:19:42;;;;;;;4.10;0.73;;;;;;;6.28;100.00;99909.06;6241377;28;20049;-72
2023/11/11 13:22:43;;;;;;;2.03;0.80;;;;;;;6.32;100.00;99912.38;6239206;28;20052;-71
2023/11/11 13:25:45;;;;;;;2.35;1.00;;;;;;;6.28;100.00;99916.06;6239308;28;20353;-71
2023/11/11 13:28:48;;;;;;;0.82;0.70;;;;;;;6.17;100.00;99921.78;6240194;28;20057;-71
2023/11/11 13:31:49;;;;;;;0.90;0.50;;;;;;;6.26;100.00;99913.50;6227122;28;20358;-71
2023/11/11 13:34:54;;;;;;;0.60;0.47;;;;;;;6.20;100.00;99913.81;6215627;28;20037;-71
2023/11/11 13:37:57;;;;;;;1.17;0.70;;;;;;;6.37;100.00;99919.97;6241425;28;20071;-71
2023/11/11 13:41:00;;;;;;;1.75;0.65;;;;;;;6.39;100.00;99915.53;6208813;28;20100;-72
2023/11/11 13:44:02;;;;;;;0.47;0.47;;;;;;;6.43;100.00;99919.66;6217418;28;20135;-74
2023/11/11 13:47:03;;;;;;;1.40;0.43;;;;;;;6.39;100.00;99912.91;6226935;28;20351;-73
2023/11/11 13:50:08;;;;;;;3.55;0.80;;;;;;;6.48;100.00;99915.06;6235581;28;20042;-74
2023/11/11 13:53:09;;;;;;;0.35;0.35;;;;;;;6.47;100.00;99918.59;6226589;28;20133;-74
2023/11/11 13:56:11;;;;;;;3.38;0.60;;;;;;;6.53;100.00;99918.28;6242352;28;20049;-74
2023/11/11 13:59:12;;;;;;;1.15;0.50;;;;;;;6.49;100.00;99916.75;6220940;28;20052;-74
2023/11/11 14:02:15;;;;;;;2.55;0.80;;;;;;;6.48;100.00;99918.50;6217331;28;20058;-74
2023/11/11 14:05:18;;;;;;;0.70;0.63;;;;;;;6.49;100.00;99922.81;6213479;28;20112;-74
2023/11/11 14:08:19;;;;;;;0.73;0.60;;;;;;;6.46;100.00;99920.38;6211114;28;20054;-74
2023/11/11 14:11:24;;;;;;;4.03;0.70;;;;;;;6.49;100.00;99928.03;6208449;28;20045;-75
2023/11/11 14:14:25;;;;;;;4.00;1.33;;;;;;;6.43;100.00;99927.50;6218639;28;20129;-74
2023/11/11 14:17:27;;;;;;;3.70;1.38;;;;;;;6.39;100.00;99932.00;6223453;28;20468;-73